createdAt,value
2017-07-21T00:02:15.398Z,98738.59
2017-07-21T00:04:42.888Z,98732.95
2017-07-21T00:07:10.374Z,98740.77
2017-07-21T00:09:37.838Z,98743.27
2017-07-21T00:12:05.350Z,98735.66
2017-07-21T00:14:33.614Z,98740.94
2017-07-21T00:17:01.117Z,98747.57
2017-07-21T00:19:28.586Z,98745.05
2017-07-21T00:21:56.068Z,98739.42
2017-07-21T00:24:23.527Z,98742.93
2017-07-21T00:26:51.020Z,98745.10
2017-07-21T00:29:18.489Z,98745.48
2017-07-21T00:31:45.974Z,98745.10
2017-07-21T00:34:13.584Z,98745.88
2017-07-21T00:36:41.029Z,98745.69
2017-07-21T00:39:08.480Z,98751.56
2017-07-21T00:41:35.968Z,98744.56
2017-07-21T00:44:03.449Z,98745.72
2017-07-21T00:46:30.925Z,98742.24
2017-07-21T00:48:58.434Z,98746.92
2017-07-21T00:51:25.885Z,98748.84
2017-07-21T00:53:53.382Z,98749.07
2017-07-21T00:56:20.844Z,98752.20
2017-07-21T00:58:48.350Z,98756.11
2017-07-21T01:01:15.840Z,98750.08
2017-07-21T01:03:43.317Z,98748.13
2017-07-21T01:06:10.798Z,98748.55
2017-07-21T01:08:38.265Z,98746.59
2017-07-21T01:11:05.728Z,98740.35
2017-07-21T01:13:33.223Z,98746.59
2017-07-21T01:16:00.679Z,98745.05
2017-07-21T01:18:28.178Z,98747.81
2017-07-21T01:20:55.781Z,98746.05
2017-07-21T01:23:23.242Z,98751.70
2017-07-21T01:25:50.698Z,98750.92
2017-07-21T01:28:18.180Z,98750.92
2017-07-21T01:30:45.637Z,98754.64
2017-07-21T01:33:13.160Z,98749.73
2017-07-21T01:35:40.664Z,98749.34
2017-07-21T01:38:08.101Z,98741.56
2017-07-21T01:40:35.576Z,98742.92
2017-07-21T01:43:03.195Z,98745.85
2017-07-21T01:45:30.675Z,98745.68
2017-07-21T01:47:58.162Z,98743.91
2017-07-21T01:50:25.645Z,98740.80
2017-07-21T01:52:53.106Z,98745.68
2017-07-21T01:55:20.601Z,98742.36
2017-07-21T01:57:48.080Z,98746.45
2017-07-21T02:00:15.833Z,98743.33
2017-07-21T02:02:43.330Z,98742.19
2017-07-21T02:05:10.953Z,98745.30
2017-07-21T02:07:38.416Z,98745.53
2017-07-21T02:10:05.877Z,98747.47
2017-07-21T02:12:33.375Z,98745.92
2017-07-21T02:15:00.871Z,98753.13
2017-07-21T02:17:28.344Z,98752.55
2017-07-21T02:19:55.788Z,98756.46
2017-07-21T02:22:23.406Z,98743.80
2017-07-21T02:24:50.866Z,98748.28
2017-07-21T02:27:18.459Z,98752.38
2017-07-21T02:29:45.925Z,98754.16
2017-07-21T02:32:13.394Z,98756.27
2017-07-21T02:34:40.887Z,98755.11
2017-07-21T02:37:08.334Z,98754.91
2017-07-21T02:39:35.819Z,98752.98
2017-07-21T02:42:03.309Z,98750.83
2017-07-21T02:44:30.803Z,98760.22
2017-07-21T02:46:58.280Z,98753.38
2017-07-21T02:49:25.765Z,98756.89
2017-07-21T02:51:53.246Z,98762.75
2017-07-21T02:54:20.701Z,98760.06
2017-07-21T02:56:48.185Z,98758.52
2017-07-21T02:59:15.649Z,98760.07
2017-07-21T03:01:43.139Z,98755.02
2017-07-21T03:04:10.594Z,98755.02
2017-07-21T03:06:38.512Z,98753.48
2017-07-21T03:09:05.970Z,98759.13
2017-07-21T03:11:33.437Z,98759.72
2017-07-21T03:14:00.906Z,98761.10
2017-07-21T03:16:28.390Z,98764.63
2017-07-21T03:18:55.865Z,98762.11
2017-07-21T03:21:23.316Z,98760.16
2017-07-21T03:23:50.834Z,98760.95
2017-07-21T03:26:18.289Z,98763.70
2017-07-21T03:28:45.776Z,98764.46
2017-07-21T03:31:13.274Z,98765.47
2017-07-21T03:33:40.744Z,98773.06
2017-07-21T03:36:08.249Z,98774.85
2017-07-21T03:38:35.721Z,98770.16
2017-07-21T03:41:03.196Z,98775.45
2017-07-21T03:43:30.638Z,98777.41
2017-07-21T03:45:58.135Z,98777.80
2017-07-21T03:48:25.585Z,98777.98
2017-07-21T03:50:53.063Z,98781.68
2017-07-21T03:53:20.544Z,98786.77
2017-07-21T03:55:48.013Z,98780.89
2017-07-21T03:58:15.490Z,98784.25
2017-07-21T04:00:42.955Z,98789.31
2017-07-21T04:03:10.452Z,98792.04
2017-07-21T04:05:37.907Z,98793.23
2017-07-21T04:08:05.389Z,98795.95
2017-07-21T04:10:32.923Z,98793.42
2017-07-21T04:13:00.470Z,98800.07
2017-07-21T04:15:27.936Z,98791.68
2017-07-21T04:17:55.408Z,98794.81
2017-07-21T04:20:22.902Z,98794.05
2017-07-21T04:22:50.355Z,98800.31
2017-07-21T04:25:17.849Z,98793.48
2017-07-21T04:27:45.340Z,98791.92
2017-07-21T04:30:12.825Z,98791.14
2017-07-21T04:32:40.268Z,98790.57
2017-07-21T04:35:07.737Z,98791.73
2017-07-21T04:37:35.235Z,98794.08
2017-07-21T04:40:02.829Z,98792.52
2017-07-21T04:42:30.284Z,98792.31
2017-07-21T04:44:57.730Z,98791.92
2017-07-21T04:47:25.214Z,98790.95
2017-07-21T04:49:53.322Z,98793.30
2017-07-21T04:52:20.802Z,98793.89
2017-07-21T04:54:48.289Z,98789.60
2017-07-21T04:57:15.761Z,98785.10
2017-07-21T04:59:43.218Z,98785.70
2017-07-21T05:02:10.702Z,98785.54
2017-07-21T05:04:38.160Z,98786.12
2017-07-21T05:07:05.629Z,98783.56
2017-07-21T05:09:33.139Z,98783.97
2017-07-21T05:12:00.602Z,98779.09
2017-07-21T05:14:28.752Z,98777.33
2017-07-21T05:16:56.627Z,98774.59
2017-07-21T05:19:24.114Z,98775.73
2017-07-21T05:21:51.556Z,98776.13
2017-07-21T05:24:19.022Z,98770.91
2017-07-21T05:26:46.466Z,98780.25
2017-07-21T05:29:13.940Z,98775.19
2017-07-21T05:31:41.426Z,98775.38
2017-07-21T05:34:08.883Z,98771.88
2017-07-21T05:36:36.370Z,98768.75
2017-07-21T05:39:03.827Z,98769.53
2017-07-21T05:41:31.311Z,98768.73
2017-07-21T05:43:58.762Z,98764.45
2017-07-21T05:46:26.233Z,98758.80
2017-07-21T05:48:53.684Z,98758.41
2017-07-21T05:51:21.160Z,98763.30
2017-07-21T05:53:48.645Z,98760.76
2017-07-21T05:56:16.126Z,98761.73
2017-07-21T05:58:43.585Z,98766.03
2017-07-21T06:01:11.037Z,98763.30
2017-07-21T06:03:38.535Z,98759.78
2017-07-21T06:06:05.977Z,98764.05
2017-07-21T06:08:33.455Z,98765.42
2017-07-21T06:11:00.935Z,98773.40
2017-07-21T06:13:28.418Z,98766.98
2017-07-21T06:15:55.908Z,98775.17
2017-07-21T06:18:23.365Z,98780.23
2017-07-21T06:20:50.839Z,98785.50
2017-07-21T06:23:18.418Z,98783.75
2017-07-21T06:25:45.861Z,98786.27
2017-07-21T06:28:13.354Z,98786.09
2017-07-21T06:30:40.832Z,98788.98
2017-07-21T06:33:08.283Z,98782.37
2017-07-21T06:35:35.749Z,98780.03
2017-07-21T06:38:04.098Z,98778.30
2017-07-21T06:40:32.214Z,98775.34
2017-07-21T06:42:59.669Z,98771.47
2017-07-21T06:45:27.168Z,98778.88
2017-07-21T06:47:54.650Z,98774.39
2017-07-21T06:50:22.254Z,98771.06
2017-07-21T06:52:49.698Z,98772.02
2017-07-21T06:55:17.168Z,98774.97
2017-07-21T06:57:44.668Z,98769.89
2017-07-21T07:00:12.141Z,98772.42
2017-07-21T07:02:39.638Z,98776.52
2017-07-21T07:05:07.133Z,98775.16
2017-07-21T07:07:34.618Z,98776.52
2017-07-21T07:10:02.118Z,98772.61
2017-07-21T07:12:29.592Z,98772.22
2017-07-21T07:14:57.064Z,98768.70
2017-07-21T07:17:24.532Z,98770.46
2017-07-21T07:19:52.038Z,98769.49
2017-07-21T07:22:19.598Z,98768.13
2017-07-21T07:24:47.107Z,98771.03
2017-07-21T07:27:15.481Z,98773.39
2017-07-21T07:29:43.439Z,98769.87
2017-07-21T07:32:10.898Z,98773.77
2017-07-21T07:34:38.419Z,98768.11
2017-07-21T07:37:05.882Z,98775.13
2017-07-21T07:39:33.413Z,98772.03
2017-07-21T07:42:00.882Z,98775.52
2017-07-21T07:44:28.411Z,98772.78
2017-07-21T07:46:55.859Z,98767.72
2017-07-21T07:49:23.343Z,98769.87
2017-07-21T07:51:50.836Z,98769.45
2017-07-21T07:54:18.377Z,98763.23
2017-07-21T07:56:45.863Z,98764.00
2017-07-21T07:59:13.305Z,98761.48
2017-07-21T08:01:40.802Z,98761.28
2017-07-21T08:04:08.274Z,98761.48
2017-07-21T08:06:35.787Z,98759.75
2017-07-21T08:09:03.607Z,98755.27
2017-07-21T08:11:31.081Z,98750.74
2017-07-21T08:13:58.571Z,98750.57
2017-07-21T08:16:26.012Z,98752.53
2017-07-21T08:18:53.530Z,98747.27
2017-07-21T08:21:21.038Z,98748.23
2017-07-21T08:23:48.525Z,98747.27
2017-07-21T08:26:15.985Z,98749.04
2017-07-21T08:28:43.473Z,98747.08
2017-07-21T08:31:10.935Z,98742.02
2017-07-21T08:33:38.420Z,98748.83
2017-07-21T08:36:05.876Z,98753.30
2017-07-21T08:38:33.480Z,98743.36
2017-07-21T08:41:00.959Z,98746.70
2017-07-21T08:43:29.358Z,98745.73
2017-07-21T08:45:56.883Z,98739.67
2017-07-21T08:48:24.365Z,98738.52
2017-07-21T08:50:51.842Z,98740.03
2017-07-21T08:53:19.409Z,98734.19
2017-07-21T08:55:46.902Z,98734.02
2017-07-21T08:58:14.464Z,98732.27
2017-07-21T09:00:42.140Z,98725.64
2017-07-21T09:03:09.611Z,98724.09
2017-07-21T09:05:37.064Z,98724.48
2017-07-21T09:08:04.578Z,98724.09
2017-07-21T09:10:32.020Z,98712.00
2017-07-21T09:12:59.545Z,98711.99
2017-07-21T09:15:27.201Z,98713.16
2017-07-21T09:17:54.700Z,98707.33
2017-07-21T09:20:22.571Z,98702.84
2017-07-21T09:22:50.035Z,98706.15
2017-07-21T09:25:17.494Z,98695.63
2017-07-21T09:27:44.975Z,98696.41
2017-07-21T09:30:12.446Z,98697.36
2017-07-21T09:32:39.912Z,98689.77
2017-07-21T09:35:07.390Z,98691.52
2017-07-21T09:37:34.863Z,98688.03
2017-07-21T09:40:02.363Z,98687.83
2017-07-21T09:42:29.868Z,98686.86
2017-07-21T09:44:57.330Z,98682.95
2017-07-21T09:47:24.824Z,98676.92
2017-07-21T09:49:52.299Z,98671.44
2017-07-21T09:52:19.794Z,98667.73
2017-07-21T09:54:47.252Z,98669.69
2017-07-21T09:57:14.774Z,98667.76
2017-07-21T09:59:42.267Z,98670.09
2017-07-21T10:02:09.797Z,98660.94
2017-07-21T10:04:37.246Z,98662.86
2017-07-21T10:07:04.745Z,98667.16
2017-07-21T10:09:32.267Z,98661.87
2017-07-21T10:11:59.709Z,98665.00
2017-07-21T10:14:27.946Z,98657.95
2017-07-21T10:16:55.410Z,98646.48
2017-07-21T10:19:22.876Z,98647.84
2017-07-21T10:21:50.355Z,98649.59
2017-07-21T10:24:17.959Z,98652.50
2017-07-21T10:26:46.088Z,98647.23
2017-07-21T10:29:13.560Z,98640.80
2017-07-21T10:31:41.020Z,98640.78
2017-07-21T10:34:08.617Z,98639.20
2017-07-21T10:36:36.072Z,98633.97
2017-07-21T10:39:03.533Z,98635.72
2017-07-21T10:41:31.021Z,98636.28
2017-07-21T10:43:58.482Z,98633.94
2017-07-21T10:46:25.957Z,98634.89
2017-07-21T10:48:53.421Z,98632.16
2017-07-21T10:51:20.915Z,98624.95
2017-07-21T10:53:48.384Z,98625.71
2017-07-21T10:56:15.870Z,98615.19
2017-07-21T10:58:43.315Z,98613.65
2017-07-21T11:01:10.884Z,98611.67
2017-07-21T11:03:38.417Z,98608.34
2017-07-21T11:06:05.881Z,98606.20
2017-07-21T11:08:33.387Z,98608.70
2017-07-21T11:11:00.841Z,98612.20
2017-07-21T11:13:28.352Z,98607.33
2017-07-21T11:15:55.795Z,98608.88
2017-07-21T11:18:23.273Z,98600.53
2017-07-21T11:20:50.741Z,98607.34
2017-07-21T11:23:18.218Z,98601.47
2017-07-21T11:25:45.660Z,98602.84
2017-07-21T11:28:13.157Z,98603.23
2017-07-21T11:30:40.651Z,98589.39
2017-07-21T11:33:08.093Z,98589.39
2017-07-21T11:35:35.591Z,98582.93
2017-07-21T11:38:03.066Z,98586.44
2017-07-21T11:40:30.561Z,98585.08
2017-07-21T11:42:58.040Z,98583.71
2017-07-21T11:45:25.529Z,98581.18
2017-07-21T11:47:53.299Z,98573.55
2017-07-21T11:50:20.786Z,98579.59
2017-07-21T11:52:48.228Z,98573.75
2017-07-21T11:55:15.758Z,98570.05
2017-07-21T11:57:43.275Z,98562.41
2017-07-21T12:00:10.770Z,98570.77
2017-07-21T12:02:38.238Z,98570.77
2017-07-21T12:05:05.716Z,98573.14
2017-07-21T12:07:33.181Z,98568.04
2017-07-21T12:10:00.898Z,98565.31
2017-07-21T12:12:28.341Z,98569.02
2017-07-21T12:14:55.794Z,98572.89
2017-07-21T12:17:23.735Z,98574.48
2017-07-21T12:19:51.205Z,98568.61
2017-07-21T12:22:18.658Z,98566.66
2017-07-21T12:24:46.146Z,98565.88
2017-07-21T12:27:13.589Z,98563.92
2017-07-21T12:29:41.705Z,98559.44
2017-07-21T12:32:09.195Z,98558.27
2017-07-21T12:34:36.682Z,98552.61
2017-07-21T12:37:04.162Z,98554.17
2017-07-21T12:39:31.625Z,98551.45
2017-07-21T12:41:59.163Z,98546.73
2017-07-21T12:44:26.648Z,98549.86
2017-07-21T12:46:54.147Z,98540.89
2017-07-21T12:49:21.630Z,98539.69
2017-07-21T12:51:49.086Z,98541.25
2017-07-21T12:54:16.565Z,98541.05
2017-07-21T12:56:44.030Z,98545.73
2017-07-21T12:59:11.538Z,98541.64
2017-07-21T13:01:38.997Z,98528.38
2017-07-21T13:04:06.493Z,98530.72
2017-07-21T13:06:33.945Z,98524.88
2017-07-21T13:09:01.452Z,98522.31
2017-07-21T13:11:28.997Z,98517.05
2017-07-21T13:13:56.453Z,98517.82
2017-07-21T13:16:24.881Z,98518.61
2017-07-21T13:18:53.314Z,98510.41
2017-07-21T13:21:20.786Z,98502.42
2017-07-21T13:23:48.431Z,98499.07
2017-07-21T13:26:16.014Z,98498.07
2017-07-21T13:28:43.767Z,98495.14
2017-07-21T13:31:11.223Z,98495.73
2017-07-21T13:33:38.753Z,98487.34
2017-07-21T13:36:06.196Z,98492.41
2017-07-21T13:38:33.677Z,98490.63
2017-07-21T13:41:01.131Z,98479.91
2017-07-21T13:43:28.642Z,98479.48
2017-07-21T13:45:56.110Z,98484.36
2017-07-21T13:48:23.586Z,98480.49
2017-07-21T13:50:51.050Z,98470.32
2017-07-21T13:53:18.537Z,98468.56
2017-07-21T13:55:46.022Z,98471.30
2017-07-21T13:58:13.654Z,98466.62
2017-07-21T14:00:41.161Z,98460.96
2017-07-21T14:03:08.611Z,98457.61
2017-07-21T14:05:36.095Z,98452.31
2017-07-21T14:08:03.561Z,98455.24
2017-07-21T14:10:31.227Z,98442.37
2017-07-21T14:12:58.688Z,98437.10
2017-07-21T14:15:26.562Z,98439.86
2017-07-21T14:17:54.024Z,98437.85
2017-07-21T14:20:21.649Z,98437.46
2017-07-21T14:22:49.942Z,98426.31
2017-07-21T14:25:17.406Z,98427.26
2017-07-21T14:27:44.912Z,98417.30
2017-07-21T14:30:12.367Z,98423.13
2017-07-21T14:32:39.849Z,98411.65
2017-07-21T14:35:07.302Z,98411.84
2017-07-21T14:37:34.784Z,98402.87
2017-07-21T14:40:02.259Z,98406.55
2017-07-21T14:42:29.744Z,98398.16
2017-07-21T14:44:57.205Z,98400.46
2017-07-21T14:47:24.785Z,98390.32
2017-07-21T14:49:53.081Z,98380.17
2017-07-21T14:52:20.562Z,98383.88
2017-07-21T14:54:48.053Z,98388.37
2017-07-21T14:57:15.524Z,98384.27
2017-07-21T14:59:43.024Z,98381.11
2017-07-21T15:02:10.477Z,98376.63
2017-07-21T15:04:37.990Z,98375.23
2017-07-21T15:07:05.975Z,98372.69
2017-07-21T15:09:33.413Z,98374.05
2017-07-21T15:12:00.917Z,98375.59
2017-07-21T15:14:28.393Z,98374.80
2017-07-21T15:16:55.838Z,98376.98
2017-07-21T15:19:23.690Z,98373.67
2017-07-21T15:21:51.381Z,98376.17
2017-07-21T15:24:18.863Z,98375.00
2017-07-21T15:26:46.555Z,98375.78
2017-07-21T15:29:14.288Z,98373.02
2017-07-21T15:31:41.749Z,98374.34
2017-07-21T15:34:09.299Z,98370.67
2017-07-21T15:36:36.776Z,98372.23
2017-07-21T15:39:04.293Z,98362.09
2017-07-21T15:41:31.772Z,98356.82
2017-07-21T15:43:59.278Z,98349.59
2017-07-21T15:46:26.772Z,98347.61
2017-07-21T15:48:54.365Z,98347.42
2017-07-21T15:51:21.882Z,98337.82
2017-07-21T15:53:49.561Z,98334.92
2017-07-21T15:56:17.042Z,98330.21
2017-07-21T15:58:44.517Z,98327.70
2017-07-21T16:01:11.978Z,98320.65
2017-07-21T16:03:39.449Z,98324.55
2017-07-21T16:06:06.932Z,98311.08
2017-07-21T16:08:34.400Z,98309.48
2017-07-21T16:11:01.906Z,98308.87
2017-07-21T16:13:29.437Z,98307.50
2017-07-21T16:15:56.941Z,98299.89
2017-07-21T16:19:49.119Z,98298.59
2017-07-21T16:22:16.600Z,98303.91
2017-07-21T16:24:44.060Z,98304.27
2017-07-21T16:27:11.541Z,98307.54
2017-07-21T16:29:39.020Z,98303.83
2017-07-21T16:32:06.523Z,98301.45
2017-07-21T16:34:33.999Z,98297.27
2017-07-21T16:37:01.473Z,98302.08
2017-07-21T16:39:28.984Z,98309.65
2017-07-21T16:41:56.449Z,98307.47
2017-07-21T16:44:23.970Z,98303.92
2017-07-21T16:46:51.432Z,98305.28
2017-07-21T16:49:18.931Z,98308.98
2017-07-21T16:51:46.386Z,98309.37
2017-07-21T16:54:13.861Z,98314.42
2017-07-21T16:56:41.321Z,98315.78
2017-07-21T16:59:08.805Z,98324.53
2017-07-21T17:01:36.262Z,98326.13
2017-07-21T17:04:03.758Z,98327.11
2017-07-21T17:06:31.204Z,98324.41
2017-07-21T17:08:58.697Z,98328.86
2017-07-21T17:11:26.177Z,98324.57
2017-07-21T17:13:54.519Z,98325.73
2017-07-21T17:16:21.973Z,98318.52
2017-07-21T17:18:49.582Z,98322.03
2017-07-21T17:21:17.036Z,98324.77
2017-07-21T17:23:44.548Z,98321.41
2017-07-21T17:26:12.021Z,98323.17
2017-07-21T17:28:39.465Z,98327.27
2017-07-21T17:31:06.976Z,98325.73
2017-07-21T17:33:34.431Z,98321.41
2017-07-21T17:36:01.922Z,98333.34
2017-07-21T17:38:29.397Z,98331.98
2017-07-21T17:40:56.887Z,98338.22
2017-07-21T17:43:24.344Z,98333.93
2017-07-21T17:45:51.796Z,98328.85
2017-07-21T17:48:19.398Z,98329.80
2017-07-21T17:50:47.209Z,98328.81
2017-07-21T17:53:14.701Z,98330.58
2017-07-21T17:55:42.185Z,98320.62
2017-07-21T17:58:09.707Z,98319.44
2017-07-21T18:00:37.201Z,98313.98
2017-07-21T18:03:04.694Z,98305.78
2017-07-21T18:05:32.199Z,98300.52
2017-07-21T18:07:59.654Z,98307.34
2017-07-21T18:10:27.155Z,98312.81
2017-07-21T18:12:54.611Z,98308.91
2017-07-21T18:15:22.239Z,98314.53
2017-07-21T18:17:49.702Z,98317.45
2017-07-21T18:20:17.324Z,98314.33
2017-07-21T18:22:44.771Z,98314.53
2017-07-21T18:25:12.216Z,98306.92
2017-07-21T18:27:39.849Z,98308.67
2017-07-21T18:30:07.339Z,98309.61
2017-07-21T18:32:34.776Z,98320.38
2017-07-21T18:35:02.349Z,98325.66
2017-07-21T18:37:29.858Z,98318.81
2017-07-21T18:39:57.306Z,98330.30
2017-07-21T18:42:24.804Z,98326.20
2017-07-21T18:44:52.264Z,98328.94
2017-07-21T18:47:19.759Z,98318.98
2017-07-21T18:49:47.213Z,98319.80
2017-07-21T18:52:14.690Z,98328.00
2017-07-21T18:54:42.138Z,98335.57
2017-07-21T18:57:09.631Z,98331.08
2017-07-21T18:59:37.111Z,98328.94
2017-07-21T19:02:04.596Z,98331.86
2017-07-21T19:04:32.078Z,98315.86
2017-07-21T19:06:59.577Z,98305.70
2017-07-21T19:09:27.045Z,98309.61
2017-07-21T19:11:54.518Z,98293.99
2017-07-21T19:14:21.989Z,98299.26
2017-07-21T19:16:49.460Z,98298.48
2017-07-21T19:19:16.994Z,98299.65
2017-07-21T19:21:44.436Z,98301.80
2017-07-21T19:24:11.924Z,98296.72
2017-07-21T19:26:39.365Z,98304.92
2017-07-21T19:29:06.861Z,98305.16
2017-07-21T19:31:34.317Z,98303.95
2017-07-21T19:34:01.871Z,98310.16
2017-07-21T19:36:29.341Z,98318.74
2017-07-21T19:38:56.822Z,98326.94
2017-07-21T19:41:24.317Z,98329.29
2017-07-21T19:43:51.774Z,98325.97
2017-07-21T19:46:19.257Z,98324.41
2017-07-21T19:48:46.707Z,98322.30
2017-07-21T19:51:14.331Z,98321.28
2017-07-21T19:53:42.088Z,98319.92
2017-07-21T19:56:09.545Z,98322.84
2017-07-21T19:58:37.092Z,98318.31
2017-07-21T20:01:04.555Z,98309.73
2017-07-21T20:03:32.017Z,98313.83
2017-07-21T20:05:59.508Z,98305.62
2017-07-21T20:08:26.980Z,98300.59
2017-07-21T20:10:54.473Z,98309.17
2017-07-21T20:13:21.938Z,98309.56
2017-07-21T20:15:49.381Z,98318.16
2017-07-21T20:18:16.871Z,98327.30
2017-07-21T20:20:44.338Z,98332.96
2017-07-21T20:23:11.798Z,98326.55
2017-07-21T20:25:39.305Z,98326.75
2017-07-21T20:28:06.766Z,98321.28
2017-07-21T20:30:34.275Z,98311.91
2017-07-21T20:33:01.736Z,98310.34
2017-07-21T20:35:29.330Z,98313.44
2017-07-21T20:37:56.791Z,98336.08
2017-07-21T20:40:24.384Z,98355.80
2017-07-21T20:42:51.833Z,98360.09
2017-07-21T20:45:19.269Z,98372.20
2017-07-21T20:47:46.754Z,98372.59
2017-07-21T20:50:14.233Z,98376.50
2017-07-21T20:52:41.708Z,98374.16
2017-07-21T20:55:09.156Z,98372.95
2017-07-21T20:57:36.889Z,98392.86
2017-07-21T21:00:04.336Z,98389.73
2017-07-21T21:02:31.834Z,98393.64
2017-07-21T21:04:59.312Z,98399.11
2017-07-21T21:07:26.855Z,98397.55
2017-07-21T21:09:54.301Z,98395.24
2017-07-21T21:12:21.758Z,98405.98
2017-07-21T21:14:49.254Z,98414.57
2017-07-21T21:17:16.699Z,98427.45
2017-07-21T21:19:44.176Z,98448.70
2017-07-21T21:22:11.670Z,98456.72
2017-07-21T21:24:39.154Z,98476.08
2017-07-21T21:27:06.689Z,98489.16
2017-07-21T21:29:34.142Z,98508.13
2017-07-21T21:32:01.674Z,98511.03
2017-07-21T21:34:29.126Z,98520.44
2017-07-21T21:36:56.610Z,98532.51
2017-07-21T21:39:24.058Z,98540.32
2017-07-21T21:41:51.560Z,98544.06
2017-07-21T21:44:18.999Z,98549.33
2017-07-21T21:47:18.205Z,98551.52
2017-07-21T21:49:45.670Z,98562.56
2017-07-21T21:52:13.115Z,98561.37
2017-07-21T21:54:40.593Z,98560.24
2017-07-21T21:57:08.043Z,98561.02
2017-07-21T21:59:35.533Z,98560.02
2017-07-21T22:02:03.043Z,98562.59
2017-07-21T22:04:30.510Z,98567.78
2017-07-21T22:06:57.974Z,98565.81
2017-07-21T22:09:25.465Z,98571.36
2017-07-21T22:11:52.950Z,98570.08
2017-07-21T22:14:20.410Z,98567.65
2017-07-21T22:16:47.901Z,98565.36
2017-07-21T22:19:15.379Z,98560.64
2017-07-21T22:21:42.854Z,98566.47
2017-07-21T22:24:10.306Z,98569.94
2017-07-21T22:26:37.784Z,98565.47
2017-07-21T22:29:05.246Z,98557.84
2017-07-21T22:31:32.983Z,98560.35
2017-07-21T22:34:00.438Z,98556.33
2017-07-21T22:36:27.881Z,98558.70
2017-07-21T22:38:55.359Z,98552.18
2017-07-21T22:41:22.841Z,98553.79
2017-07-21T22:43:50.323Z,98548.60
2017-07-21T22:46:17.760Z,98542.02
2017-07-21T22:48:45.261Z,98535.81
2017-07-21T22:51:12.703Z,98538.89
2017-07-21T22:53:40.197Z,98535.14
2017-07-21T22:56:07.805Z,98533.20
2017-07-21T22:58:35.428Z,98535.95
2017-07-21T23:01:02.882Z,98527.41
2017-07-21T23:03:30.794Z,98527.21
2017-07-21T23:05:58.245Z,98522.91
2017-07-21T23:08:25.705Z,98525.25
2017-07-21T23:10:53.165Z,98529.72
2017-07-21T23:13:20.606Z,98529.52
2017-07-21T23:15:48.069Z,98524.84
2017-07-21T23:18:15.535Z,98523.09
2017-07-21T23:20:43.005Z,98520.36
2017-07-21T23:23:10.523Z,98525.21
2017-07-21T23:25:37.975Z,98526.18
2017-07-21T23:28:05.634Z,98523.64
2017-07-21T23:30:33.097Z,98519.56
2017-07-21T23:33:00.571Z,98511.02
2017-07-21T23:35:28.061Z,98513.92
2017-07-21T23:37:55.522Z,98521.72
2017-07-21T23:40:22.993Z,98519.56
2017-07-21T23:42:50.518Z,98511.00
2017-07-21T23:45:17.980Z,98510.22
2017-07-21T23:47:45.593Z,98511.94
2017-07-21T23:50:13.095Z,98518.05
2017-07-21T23:52:40.551Z,98520.48
2017-07-21T23:55:08.051Z,98529.20
2017-07-21T23:57:35.498Z,98546.06
